Time;durP1;ratioP1;P1;durP2;ratioP2;P2;SDS_P1;SDS_P2;PMS_P1;PMS_P2;Temp;Humidity;BMP_temperature;BMP_pressure;BME280_temperature;BME280_humidity;BME280_pressure;Samples;Min_cycle;Max_cycle;Signal;HPM_P1;HPM_P2
2022/11/29 00:00:57;;;;;;;38.83;16.13;;;;;;;;;;5053165;28;20132;-79
2022/11/29 00:03:23;;;;;;;41.88;16.10;;;;;;;;;;5049422;28;20045;-78
2022/11/29 00:05:50;;;;;;;40.45;16.02;;;;;;;;;;5032923;28;20488;-78
2022/11/29 00:08:16;;;;;;;44.40;16.63;;;;;;;;;;5031745;28;20446;-78
2022/11/29 00:10:42;;;;;;;37.47;15.85;;;;;;;;;;5038729;28;20045;-78
2022/11/29 00:13:08;;;;;;;38.47;14.75;;;;;;;;;;5052299;28;20064;-78
2022/11/29 00:15:35;;;;;;;52.20;16.38;;;;;;;;;;5049115;28;20526;-78
2022/11/29 00:18:01;;;;;;;44.03;15.18;;;;;;;;;;5053006;28;20056;-78
2022/11/29 00:20:27;;;;;;;59.30;17.35;;;;;;;;;;5048893;28;20041;-78
2022/11/29 00:22:54;;;;;;;46.05;15.45;;;;;;;;;;5033517;28;20176;-78
2022/11/29 00:25:20;;;;;;;49.17;14.98;;;;;;;;;;5036400;28;20116;-78
2022/11/29 00:27:46;;;;;;;64.38;17.88;;;;;;;;;;5036946;28;20045;-78
2022/11/29 00:30:12;;;;;;;59.80;17.48;;;;;;;;;;5036582;28;20041;-78
2022/11/29 00:32:38;;;;;;;68.53;17.92;;;;;;;;;;5036499;28;20037;-78
2022/11/29 00:35:05;;;;;;;45.72;15.45;;;;;;;;;;5051911;28;20067;-78
2022/11/29 00:37:31;;;;;;;46.58;16.20;;;;;;;;;;5051889;28;20046;-78
2022/11/29 00:39:57;;;;;;;39.38;16.02;;;;;;;;;;5036499;28;20043;-78
2022/11/29 00:42:23;;;;;;;41.33;16.48;;;;;;;;;;5019810;28;20057;-78
2022/11/29 00:44:49;;;;;;;42.65;16.40;;;;;;;;;;5036309;28;20038;-78
2022/11/29 00:47:15;;;;;;;30.70;13.82;;;;;;;;;;5036165;28;20053;-78
2022/11/29 00:49:41;;;;;;;32.30;14.93;;;;;;;;;;5034864;28;20053;-78
2022/11/29 00:52:07;;;;;;;40.22;15.88;;;;;;;;;;5036142;28;20503;-78
2022/11/29 00:54:33;;;;;;;33.72;14.13;;;;;;;;;;5034823;28;20090;-78
2022/11/29 00:56:59;;;;;;;31.25;14.50;;;;;;;;;;5036313;28;20041;-78
2022/11/29 00:59:25;;;;;;;39.33;15.85;;;;;;;;;;5018033;28;20071;-78
2022/11/29 01:01:51;;;;;;;35.72;15.38;;;;;;;;;;5036198;28;20047;-78
2022/11/29 01:04:17;;;;;;;34.20;14.82;;;;;;;;;;5043591;28;20037;-78
2022/11/29 01:06:43;;;;;;;31.27;14.40;;;;;;;;;;5056072;28;20045;-78
2022/11/29 01:09:09;;;;;;;34.25;15.68;;;;;;;;;;5056753;28;20043;-78
2022/11/29 01:11:35;;;;;;;29.92;14.48;;;;;;;;;;5055825;28;20049;-78
2022/11/29 01:14:02;;;;;;;31.83;15.05;;;;;;;;;;5073953;28;20076;-78
2022/11/29 01:16:29;;;;;;;29.67;13.50;;;;;;;;;;5075155;28;20053;-78
2022/11/29 01:18:56;;;;;;;31.73;14.07;;;;;;;;;;5057997;28;20075;-77
2022/11/29 01:21:23;;;;;;;27.05;14.07;;;;;;;;;;5055877;28;20053;-78
2022/11/29 01:23:50;;;;;;;29.80;13.20;;;;;;;;;;5056063;28;20045;-79
2022/11/29 01:26:17;;;;;;;27.38;13.90;;;;;;;;;;5054480;28;20056;-78
2022/11/29 01:28:45;;;;;;;22.85;13.15;;;;;;;;;;5055256;28;20049;-78
2022/11/29 01:31:13;;;;;;;26.50;12.75;;;;;;;;;;5055341;28;20087;-78
2022/11/29 01:33:39;;;;;;;28.08;13.15;;;;;;;;;;5055141;28;20383;-78
2022/11/29 01:36:07;;;;;;;25.73;13.13;;;;;;;;;;5055323;28;20056;-78
2022/11/29 01:38:33;;;;;;;31.48;13.65;;;;;;;;;;5054018;28;20056;-78
2022/11/29 01:41:22;;;;;;;26.58;13.40;;;;;;;;;;5055462;28;20067;-79
2022/11/29 01:44:12;;;;;;;22.98;12.40;;;;;;;;;;5055553;28;20129;-78
2022/11/29 01:46:42;;;;;;;27.90;12.68;;;;;;;;;;4997290;28;20112;-78
2022/11/29 01:49:11;;;;;;;26.42;12.98;;;;;;;;;;5013365;28;20056;-78
2022/11/29 01:51:38;;;;;;;29.52;13.73;;;;;;;;;;5013753;28;20050;-78
2022/11/29 01:54:05;;;;;;;27.77;13.10;;;;;;;;;;4997411;28;20052;-78
2022/11/29 01:56:32;;;;;;;24.33;13.25;;;;;;;;;;5013737;28;20124;-79
2022/11/29 01:59:01;;;;;;;28.48;13.57;;;;;;;;;;5013531;28;20076;-78
2022/11/29 02:01:27;;;;;;;30.58;13.75;;;;;;;;;;5013198;28;20041;-79
2022/11/29 02:03:53;;;;;;;20.38;11.52;;;;;;;;;;5005610;28;20400;-78
2022/11/29 02:06:19;;;;;;;21.35;11.63;;;;;;;;;;5013075;28;20054;-78
2022/11/29 02:08:45;;;;;;;23.45;12.20;;;;;;;;;;5013593;28;20045;-78
2022/11/29 02:11:26;;;;;;;22.25;12.00;;;;;;;;;;5013132;28;20056;-78
2022/11/29 02:14:11;;;;;;;23.33;12.02;;;;;;;;;;5012710;28;20038;-78
2022/11/29 02:16:44;;;;;;;25.65;11.52;;;;;;;;;;5012659;28;20172;-78
2022/11/29 02:19:10;;;;;;;22.88;11.80;;;;;;;;;;5000679;28;20089;-78
2022/11/29 02:21:46;;;;;;;22.17;11.88;;;;;;;;;;4993521;28;20043;-78
2022/11/29 02:24:30;;;;;;;24.58;11.55;;;;;;;;;;5024742;28;20046;-78
2022/11/29 02:27:08;;;;;;;25.92;12.13;;;;;;;;;;5034669;28;20373;-78
2022/11/29 02:29:57;;;;;;;18.77;11.07;;;;;;;;;;5033638;28;20551;-78
2022/11/29 02:32:38;;;;;;;21.92;11.25;;;;;;;;;;5034832;28;20132;-78
2022/11/29 02:35:04;;;;;;;22.60;11.82;;;;;;;;;;5033979;28;20096;-78
2022/11/29 02:37:49;;;;;;;23.85;11.68;;;;;;;;;;5034166;28;20080;-78
2022/11/29 02:40:24;;;;;;;22.15;11.52;;;;;;;;;;5034019;28;20124;-78
2022/11/29 02:43:16;;;;;;;24.02;11.50;;;;;;;;;;5038153;28;20045;-78
2022/11/29 02:45:56;;;;;;;27.15;11.60;;;;;;;;;;5037859;28;20095;-78
2022/11/29 02:48:37;;;;;;;24.05;12.82;;;;;;;;;;5053982;28;20128;-78
2022/11/29 02:51:13;;;;;;;22.23;11.40;;;;;;;;;;5032089;28;20049;-78
2022/11/29 02:53:51;;;;;;;23.25;11.20;;;;;;;;;;5032545;28;20041;-78
2022/11/29 02:56:36;;;;;;;23.83;10.95;;;;;;;;;;5033659;28;20072;-78
2022/11/29 02:59:05;;;;;;;22.15;11.18;;;;;;;;;;5033214;28;20495;-78
2022/11/29 03:01:36;;;;;;;20.02;10.75;;;;;;;;;;5051971;28;20433;-78
2022/11/29 03:04:23;;;;;;;22.25;10.82;;;;;;;;;;5053489;28;20045;-78
2022/11/29 03:06:58;;;;;;;27.10;11.20;;;;;;;;;;5054017;28;20048;-79
2022/11/29 03:09:28;;;;;;;23.95;11.50;;;;;;;;;;5052330;28;20052;-78
2022/11/29 03:12:13;;;;;;;23.85;11.25;;;;;;;;;;5034493;28;20052;-78
2022/11/29 03:15:02;;;;;;;23.23;10.63;;;;;;;;;;5033314;28;20041;-78
2022/11/29 03:17:36;;;;;;;22.30;10.77;;;;;;;;;;5032864;28;20192;-78
2022/11/29 03:20:16;;;;;;;29.58;16.08;;;;;;;;;;5052086;28;20407;-78
2022/11/29 03:22:46;;;;;;;21.83;12.90;;;;;;;;;;5053346;28;20048;-78
2022/11/29 03:25:15;;;;;;;22.77;10.90;;;;;;;;;;5053096;28;20033;-78
2022/11/29 03:27:52;;;;;;;21.90;10.30;;;;;;;;;;5053173;28;20052;-78
2022/11/29 03:30:18;;;;;;;23.05;10.82;;;;;;;;;;5053774;28;20118;-78
2022/11/29 03:32:50;;;;;;;26.00;11.30;;;;;;;;;;5053193;28;20045;-78
2022/11/29 03:35:19;;;;;;;19.25;9.98;;;;;;;;;;5052133;28;20076;-78
2022/11/29 03:37:48;;;;;;;26.65;12.07;;;;;;;;;;5052856;28;20506;-78
2022/11/29 03:40:16;;;;;;;25.33;11.18;;;;;;;;;;5053007;28;20041;-78
2022/11/29 03:42:47;;;;;;;21.55;10.48;;;;;;;;;;5053374;28;20049;-78
2022/11/29 03:45:29;;;;;;;22.90;11.65;;;;;;;;;;5052088;28;20048;-78
2022/11/29 03:48:04;;;;;;;19.05;10.63;;;;;;;;;;5048634;28;20129;-78
2022/11/29 03:50:45;;;;;;;20.70;10.90;;;;;;;;;;5052893;28;20073;-78
2022/11/29 03:53:14;;;;;;;21.65;11.88;;;;;;;;;;5051073;28;20045;-78
2022/11/29 03:55:54;;;;;;;25.83;10.65;;;;;;;;;;5049928;28;20044;-78
2022/11/29 03:58:20;;;;;;;29.17;11.40;;;;;;;;;;5033442;28;20045;-78
2022/11/29 04:00:49;;;;;;;22.98;12.02;;;;;;;;;;5036596;28;20044;-78
2022/11/29 04:03:34;;;;;;;23.10;10.73;;;;;;;;;;5036761;28;20050;-78
2022/11/29 04:06:10;;;;;;;21.52;10.95;;;;;;;;;;5036758;28;20042;-78
2022/11/29 04:08:55;;;;;;;23.88;11.63;;;;;;;;;;5044702;28;20123;-78
2022/11/29 04:11:57;;;;;;;23.65;11.35;;;;;;;;;;5056415;28;20483;-78
2022/11/29 04:14:23;;;;;;;24.23;11.18;;;;;;;;;;5057217;28;20053;-78
2022/11/29 04:16:55;;;;;;;21.83;10.10;;;;;;;;;;5056359;28;20140;-78
2022/11/29 04:19:30;;;;;;;20.80;10.93;;;;;;;;;;5057127;28;20057;-78
2022/11/29 04:21:56;;;;;;;30.80;11.70;;;;;;;;;;5056373;28;20090;-78
2022/11/29 04:24:43;;;;;;;27.75;11.30;;;;;;;;;;5056639;28;20041;-78
2022/11/29 04:27:29;;;;;;;21.70;10.98;;;;;;;;;;5057609;28;20094;-78
2022/11/29 04:29:55;;;;;;;24.42;11.30;;;;;;;;;;5061630;28;20460;-78
2022/11/29 04:32:40;;;;;;;24.40;11.50;;;;;;;;;;5058856;28;20053;-78
2022/11/29 04:35:09;;;;;;;19.30;9.93;;;;;;;;;;5056078;28;20478;-78
2022/11/29 04:37:44;;;;;;;28.58;11.30;;;;;;;;;;5056142;28;20075;-78
2022/11/29 04:40:31;;;;;;;25.10;11.30;;;;;;;;;;5056250;28;20049;-78
2022/11/29 04:43:13;;;;;;;28.63;11.32;;;;;;;;;;5056269;28;20139;-78
2022/11/29 04:45:39;;;;;;;29.60;12.07;;;;;;;;;;5056563;28;20069;-78
2022/11/29 04:48:24;;;;;;;27.17;10.90;;;;;;;;;;5056062;28;20090;-77
2022/11/29 04:50:59;;;;;;;23.98;11.30;;;;;;;;;;5055985;28;20045;-78
2022/11/29 04:53:34;;;;;;;22.92;10.77;;;;;;;;;;5056233;28;20495;-78
2022/11/29 04:56:11;;;;;;;29.02;11.18;;;;;;;;;;5056009;28;20084;-77
2022/11/29 04:58:41;;;;;;;24.08;11.02;;;;;;;;;;5056285;28;20510;-78
2022/11/29 05:01:26;;;;;;;28.95;11.30;;;;;;;;;;5055661;28;20048;-78
2022/11/29 05:03:58;;;;;;;30.40;11.10;;;;;;;;;;5054232;28;20077;-77
2022/11/29 05:06:43;;;;;;;28.05;11.25;;;;;;;;;;5055737;28;20040;-78
2022/11/29 05:09:17;;;;;;;34.70;11.25;;;;;;;;;;5055197;28;20049;-78
2022/11/29 05:11:49;;;;;;;27.20;10.98;;;;;;;;;;5055516;28;20045;-78
2022/11/29 05:14:19;;;;;;;31.20;10.23;;;;;;;;;;5055483;28;20506;-78
2022/11/29 05:16:46;;;;;;;28.02;11.52;;;;;;;;;;5053827;28;20057;-78
2022/11/29 05:19:31;;;;;;;27.58;10.52;;;;;;;;;;5055266;28;20045;-78
2022/11/29 05:22:15;;;;;;;22.73;10.13;;;;;;;;;;5055061;28;20457;-78
2022/11/29 05:24:51;;;;;;;25.90;10.57;;;;;;;;;;5055211;28;20045;-78
2022/11/29 05:27:17;;;;;;;27.33;10.52;;;;;;;;;;5055480;28;20049;-78
2022/11/29 05:29:51;;;;;;;25.38;10.13;;;;;;;;;;5054798;28;20056;-78
2022/11/29 05:32:29;;;;;;;23.83;10.07;;;;;;;;;;5054794;28;20513;-78
2022/11/29 05:35:07;;;;;;;27.42;10.75;;;;;;;;;;5055037;28;20041;-78
2022/11/29 05:37:46;;;;;;;34.67;11.45;;;;;;;;;;5055258;28;20045;-78
2022/11/29 05:40:30;;;;;;;25.60;10.05;;;;;;;;;;5037669;28;20071;-78
2022/11/29 05:43:05;;;;;;;26.50;10.10;;;;;;;;;;5034952;28;20073;-78
2022/11/29 05:45:35;;;;;;;27.60;9.70;;;;;;;;;;5033564;28;20099;-79
2022/11/29 05:48:06;;;;;;;26.83;9.27;;;;;;;;;;5035027;28;20046;-78
2022/11/29 05:50:55;;;;;;;31.10;10.10;;;;;;;;;;5034581;28;20563;-78
2022/11/29 05:53:25;;;;;;;24.73;10.23;;;;;;;;;;5037823;28;20063;-78
2022/11/29 05:55:51;;;;;;;28.27;9.82;;;;;;;;;;5054435;28;20128;-78
2022/11/29 05:58:20;;;;;;;26.48;9.43;;;;;;;;;;5054517;28;20083;-78
2022/11/29 06:00:46;;;;;;;33.42;10.05;;;;;;;;;;5053312;28;20160;-78
2022/11/29 06:03:28;;;;;;;23.40;9.27;;;;;;;;;;5055343;28;20048;-78
2022/11/29 06:05:59;;;;;;;32.33;9.40;;;;;;;;;;5055006;28;20041;-78
2022/11/29 06:08:33;;;;;;;24.17;9.13;;;;;;;;;;5054573;28;20084;-78
2022/11/29 06:11:13;;;;;;;23.38;9.35;;;;;;;;;;5054544;28;20045;-78
2022/11/29 06:13:57;;;;;;;28.20;9.73;;;;;;;;;;5054318;28;20056;-78
2022/11/29 06:16:23;;;;;;;21.70;8.15;;;;;;;;;;5054455;28;20053;-78
2022/11/29 06:18:58;;;;;;;21.70;8.90;;;;;;;;;;5054961;28;20095;-78
2022/11/29 06:21:24;;;;;;;27.17;9.25;;;;;;;;;;5053293;28;20491;-78
2022/11/29 06:23:50;;;;;;;22.75;8.80;;;;;;;;;;5053955;28;20044;-78
2022/11/29 06:26:24;;;;;;;24.98;8.70;;;;;;;;;;5054679;28;20045;-78
2022/11/29 06:29:13;;;;;;;25.40;8.40;;;;;;;;;;5054462;28;20052;-78
2022/11/29 06:31:43;;;;;;;20.08;8.23;;;;;;;;;;5051072;28;20088;-77
2022/11/29 06:34:09;;;;;;;18.90;8.23;;;;;;;;;;5055635;28;20053;-78
2022/11/29 06:36:35;;;;;;;23.33;8.07;;;;;;;;;;5054043;28;20041;-78
2022/11/29 06:39:01;;;;;;;23.88;8.05;;;;;;;;;;5053830;28;20036;-78
2022/11/29 06:41:27;;;;;;;18.40;8.35;;;;;;;;;;5053688;28;20083;-78
2022/11/29 06:43:54;;;;;;;26.02;8.50;;;;;;;;;;5052874;28;20076;-78
2022/11/29 06:46:30;;;;;;;22.35;8.10;;;;;;;;;;5053723;28;20052;-78
2022/11/29 06:49:00;;;;;;;22.35;8.35;;;;;;;;;;5053430;28;20091;-78
2022/11/29 06:51:26;;;;;;;23.27;8.75;;;;;;;;;;5057860;28;20166;-79
2022/11/29 06:53:58;;;;;;;24.05;8.80;;;;;;;;;;5045601;28;20057;-78
2022/11/29 06:56:59;;;;;;;28.08;8.73;;;;;;;;;;5034733;28;20128;-78
2022/11/29 06:59:38;;;;;;;22.10;8.23;;;;;;;;;;4940573;28;20611;-78
2022/11/29 07:02:22;;;;;;;23.25;8.18;;;;;;;;;;4981806;28;20051;-78
2022/11/29 07:04:51;;;;;;;25.67;8.65;;;;;;;;;;4992124;28;20038;-78
2022/11/29 07:07:21;;;;;;;20.80;8.02;;;;;;;;;;4991434;28;20057;-78
2022/11/29 07:09:49;;;;;;;20.15;8.50;;;;;;;;;;4976477;28;20182;-78
2022/11/29 07:12:16;;;;;;;27.02;8.80;;;;;;;;;;4992156;28;20225;-78
2022/11/29 07:14:44;;;;;;;20.60;9.18;;;;;;;;;;4991565;28;20133;-77
2022/11/29 07:17:13;;;;;;;31.05;12.20;;;;;;;;;;4991906;28;20094;-78
2022/11/29 07:19:54;;;;;;;33.28;15.13;;;;;;;;;;4993257;28;20089;-78
2022/11/29 07:22:34;;;;;;;20.95;11.20;;;;;;;;;;4990938;28;20043;-78
2022/11/29 07:25:00;;;;;;;20.20;8.88;;;;;;;;;;4974518;28;20053;-78
2022/11/29 07:27:26;;;;;;;28.00;9.35;;;;;;;;;;4991051;28;20054;-78
2022/11/29 07:30:27;;;;;;;20.65;8.02;;;;;;;;;;4993403;28;20058;-78
2022/11/29 07:32:53;;;;;;;21.17;7.55;;;;;;;;;;5011052;28;20041;-78
2022/11/29 07:35:24;;;;;;;16.70;7.47;;;;;;;;;;5057576;28;20056;-78
2022/11/29 07:37:50;;;;;;;19.55;7.65;;;;;;;;;;5059309;28;20129;-77
2022/11/29 07:40:24;;;;;;;18.65;7.38;;;;;;;;;;5058652;28;20107;-78
2022/11/29 07:43:01;;;;;;;19.90;7.55;;;;;;;;;;5063584;28;20041;-77
2022/11/29 07:45:30;;;;;;;21.08;7.65;;;;;;;;;;5059219;28;20075;-78
2022/11/29 07:47:56;;;;;;;16.60;6.28;;;;;;;;;;5059447;28;20049;-77
2022/11/29 07:50:22;;;;;;;23.65;7.00;;;;;;;;;;5056904;28;20048;-78
2022/11/29 07:52:49;;;;;;;22.55;7.20;;;;;;;;;;5057237;28;20036;-78
2022/11/29 07:55:17;;;;;;;21.25;7.13;;;;;;;;;;5057193;28;20040;-78
2022/11/29 07:57:43;;;;;;;15.10;7.07;;;;;;;;;;5056863;28;20045;-78
2022/11/29 08:00:09;;;;;;;19.65;6.25;;;;;;;;;;5056963;28;20383;-78
2022/11/29 08:02:35;;;;;;;16.60;6.40;;;;;;;;;;5043632;28;20046;-78
2022/11/29 08:05:01;;;;;;;18.63;6.72;;;;;;;;;;5037511;28;20075;-78
2022/11/29 08:07:30;;;;;;;19.58;6.65;;;;;;;;;;5044181;28;20055;-78
2022/11/29 08:09:56;;;;;;;17.33;6.18;;;;;;;;;;5056487;28;20508;-78
2022/11/29 08:12:22;;;;;;;17.73;6.70;;;;;;;;;;5056590;28;20494;-78
2022/11/29 08:14:48;;;;;;;22.35;6.57;;;;;;;;;;5054126;28;20041;-78
2022/11/29 08:17:14;;;;;;;13.75;5.50;;;;;;;;;;5056526;28;20094;-78
2022/11/29 08:19:40;;;;;;;17.33;5.57;;;;;;;;;;5055680;28;20052;-77
2022/11/29 08:22:06;;;;;;;15.75;5.45;;;;;;;;;;5057359;28;20056;-78
2022/11/29 08:24:32;;;;;;;23.38;5.88;;;;;;;;;;5057251;28;20041;-78
2022/11/29 08:26:58;;;;;;;16.58;5.22;;;;;;;;;;5056848;28;20081;-78
2022/11/29 08:29:24;;;;;;;18.35;5.03;;;;;;;;;;5056962;28;20071;-78
2022/11/29 08:31:52;;;;;;;13.52;4.88;;;;;;;;;;5058166;28;20045;-81
2022/11/29 08:34:18;;;;;;;17.80;4.82;;;;;;;;;;5058146;28;20053;-81
2022/11/29 08:36:44;;;;;;;22.02;5.60;;;;;;;;;;5057547;28;20053;-81
2022/11/29 08:39:11;;;;;;;20.25;5.22;;;;;;;;;;5058891;28;20049;-81
2022/11/29 08:41:37;;;;;;;14.68;5.15;;;;;;;;;;5059228;28;20060;-81
2022/11/29 08:44:06;;;;;;;18.90;5.40;;;;;;;;;;5058178;28;20044;-81
2022/11/29 08:49:16;;;;;;;17.52;5.70;;;;;;;;;;5039120;28;20480;-81
2022/11/29 08:51:42;;;;;;;22.33;5.18;;;;;;;;;;5058154;28;20124;-81
2022/11/29 08:54:09;;;;;;;21.38;5.07;;;;;;;;;;5058382;28;20049;-81
2022/11/29 08:56:36;;;;;;;17.23;4.80;;;;;;;;;;5056986;28;20126;-81
2022/11/29 08:59:03;;;;;;;18.27;5.55;;;;;;;;;;5056250;28;20075;-81
2022/11/29 09:01:29;;;;;;;16.95;5.32;;;;;;;;;;5057604;28;20048;-81
2022/11/29 09:03:58;;;;;;;15.55;5.30;;;;;;;;;;5038288;28;20048;-81
2022/11/29 09:06:28;;;;;;;18.13;5.47;;;;;;;;;;5057904;28;20154;-81
2022/11/29 09:09:01;;;;;;;15.85;5.50;;;;;;;;;;5055990;28;20087;-81
2022/11/29 09:11:28;;;;;;;18.80;5.65;;;;;;;;;;5056373;28;20045;-81
2022/11/29 09:13:59;;;;;;;16.00;5.03;;;;;;;;;;5057770;28;20045;-81
2022/11/29 09:16:27;;;;;;;19.00;6.32;;;;;;;;;;5057335;28;20056;-81
2022/11/29 09:18:54;;;;;;;13.32;5.43;;;;;;;;;;5055994;28;20053;-81
2022/11/29 09:21:24;;;;;;;18.98;5.85;;;;;;;;;;5050725;28;20053;-81
2022/11/29 09:23:57;;;;;;;17.80;5.40;;;;;;;;;;5053868;28;20041;-81
2022/11/29 09:26:33;;;;;;;;;;;;;;;;;;;;;
2022/11/29 09:29:00;;;;;;;23.40;5.45;;;;;;;;;;5057233;28;20099;-81
2022/11/29 09:31:27;;;;;;;17.95;5.38;;;;;;;;;;5056401;28;20045;-81
2022/11/29 09:34:02;;;;;;;20.20;5.80;;;;;;;;;;5056351;28;20499;-81
2022/11/29 09:36:30;;;;;;;17.88;6.10;;;;;;;;;;5056534;28;20045;-81
2022/11/29 09:38:57;;;;;;;20.65;6.68;;;;;;;;;;5056920;28;20049;-81
2022/11/29 09:41:26;;;;;;;20.55;8.38;;;;;;;;;;5055323;28;20045;-81
2022/11/29 09:44:01;;;;;;;18.83;8.50;;;;;;;;;;5056387;28;20077;-81
2022/11/29 09:46:33;;;;;;;15.70;8.30;;;;;;;;;;5050257;28;20084;-81
2022/11/29 09:49:18;;;;;;;16.85;9.40;;;;;;;;;;5038837;28;20411;-81
2022/11/29 09:51:44;;;;;;;17.60;8.85;;;;;;;;;;5047503;28;20045;-81
2022/11/29 09:54:26;;;;;;;16.58;8.98;;;;;;;;;;5056576;28;20044;-81
2022/11/29 09:56:54;;;;;;;13.95;8.82;;;;;;;;;;5055359;28;20060;-81
2022/11/29 09:59:28;;;;;;;16.30;9.15;;;;;;;;;;5056275;28;20068;-81
2022/11/29 10:01:58;;;;;;;13.63;9.13;;;;;;;;;;5054910;28;20041;-81
2022/11/29 10:04:38;;;;;;;13.82;8.85;;;;;;;;;;5055857;28;20076;-81
2022/11/29 10:07:08;;;;;;;17.55;9.52;;;;;;;;;;5056106;28;20070;-81
2022/11/29 10:09:40;;;;;;;15.43;9.60;;;;;;;;;;5055891;28;20399;-81
2022/11/29 10:12:06;;;;;;;14.00;9.00;;;;;;;;;;5056436;28;20206;-81
2022/11/29 10:14:44;;;;;;;15.07;9.25;;;;;;;;;;5047466;28;20408;-81
2022/11/29 10:17:22;;;;;;;14.32;8.90;;;;;;;;;;5036364;28;20053;-81
2022/11/29 10:19:52;;;;;;;17.20;9.93;;;;;;;;;;5045307;28;20052;-81
2022/11/29 10:22:18;;;;;;;12.65;9.02;;;;;;;;;;5055582;28;20491;-81
2022/11/29 10:24:46;;;;;;;14.77;10.65;;;;;;;;;;5055505;28;20056;-81
2022/11/29 10:27:18;;;;;;;14.38;9.75;;;;;;;;;;5053881;28;20572;-81
2022/11/29 10:29:47;;;;;;;15.50;8.75;;;;;;;;;;5058841;28;20115;-81
2022/11/29 10:32:14;;;;;;;14.88;8.95;;;;;;;;;;5059798;28;20045;-81
2022/11/29 10:34:41;;;;;;;13.50;9.18;;;;;;;;;;5060136;28;20106;-81
2022/11/29 10:37:10;;;;;;;14.02;9.07;;;;;;;;;;5059369;28;20049;-81
2022/11/29 10:39:38;;;;;;;16.50;10.13;;;;;;;;;;5052905;28;20093;-82
2022/11/29 10:42:47;;;;;;;13.40;9.63;;;;;;;;;;5046648;28;20051;-81
2022/11/29 10:44:51;;;;;;;16.35;9.80;;;;;;;;;;5058894;28;20052;-81
2022/11/29 10:47:17;;;;;;;15.20;9.55;;;;;;;;;;5059542;28;20406;-81
2022/11/29 10:49:43;;;;;;;17.33;10.52;;;;;;;;;;5055235;28;20068;-81
2022/11/29 10:52:22;;;;;;;18.25;10.50;;;;;;;;;;5048817;28;20037;-81
2022/11/29 10:54:49;;;;;;;14.48;9.70;;;;;;;;;;5059490;28;20052;-81
2022/11/29 10:57:18;;;;;;;16.25;9.48;;;;;;;;;;5054756;28;20053;-82
2022/11/29 11:00:03;;;;;;;14.88;9.77;;;;;;;;;;5043276;28;20041;-82
2022/11/29 11:02:30;;;;;;;15.95;9.90;;;;;;;;;;5041873;28;20045;-83
2022/11/29 11:04:56;;;;;;;15.43;10.05;;;;;;;;;;5045893;28;20041;-83
2022/11/29 11:07:24;;;;;;;15.13;9.93;;;;;;;;;;5055999;28;20509;-80
2022/11/29 11:09:52;;;;;;;14.98;8.73;;;;;;;;;;5046278;28;20041;-81
2022/11/29 11:12:20;;;;;;;15.48;9.25;;;;;;;;;;5038840;28;20105;-79
2022/11/29 11:14:46;;;;;;;15.05;9.30;;;;;;;;;;5038037;28;20045;-81
2022/11/29 11:17:21;;;;;;;10.73;8.63;;;;;;;;;;5038074;28;20056;-81
2022/11/29 11:19:55;;;;;;;13.23;8.05;;;;;;;;;;5050965;28;20043;-81
2022/11/29 11:22:22;;;;;;;14.15;8.15;;;;;;;;;;5057807;28;20116;-83
2022/11/29 11:24:55;;;;;;;12.93;7.90;;;;;;;;;;5058909;28;20080;-81
2022/11/29 11:27:47;;;;;;;14.10;9.15;;;;;;;;;;5057603;28;20056;-82
2022/11/29 11:30:21;;;;;;;13.43;9.15;;;;;;;;;;5054964;28;20102;-82
2022/11/29 11:33:08;;;;;;;13.57;9.40;;;;;;;;;;5056648;28;20041;-81
2022/11/29 11:35:36;;;;;;;15.18;9.40;;;;;;;;;;5052582;28;20106;-82
2022/11/29 11:38:04;;;;;;;12.80;9.00;;;;;;;;;;5056860;28;20073;-81
2022/11/29 11:40:31;;;;;;;13.02;9.43;;;;;;;;;;5055784;28;20059;-81
2022/11/29 11:42:58;;;;;;;13.65;9.98;;;;;;;;;;5056904;28;20074;-81
2022/11/29 11:45:47;;;;;;;12.63;8.98;;;;;;;;;;5057532;28;20041;-81
2022/11/29 11:48:14;;;;;;;15.95;9.45;;;;;;;;;;5052210;28;20124;-81
2022/11/29 11:50:43;;;;;;;12.68;9.10;;;;;;;;;;5053387;28;20042;-81
2022/11/29 11:53:18;;;;;;;13.07;8.48;;;;;;;;;;5052907;28;20056;-81
2022/11/29 11:55:55;;;;;;;10.75;8.15;;;;;;;;;;5016462;28;20125;-81
2022/11/29 11:58:22;;;;;;;11.48;6.85;;;;;;;;;;5021194;28;20049;-81
2022/11/29 12:00:59;;;;;;;10.55;7.05;;;;;;;;;;5035502;28;20073;-81
2022/11/29 12:03:27;;;;;;;11.63;5.80;;;;;;;;;;5034976;28;20068;-81
2022/11/29 12:05:58;;;;;;;8.85;5.78;;;;;;;;;;5047409;28;20037;-81
2022/11/29 12:08:27;;;;;;;5.43;3.88;;;;;;;;;;5064873;28;20038;-82
2022/11/29 12:10:55;;;;;;;3.95;3.33;;;;;;;;;;5035718;28;20124;-81
2022/11/29 12:13:24;;;;;;;5.82;3.67;;;;;;;;;;5037973;28;20049;-82
2022/11/29 12:15:51;;;;;;;4.18;2.88;;;;;;;;;;5018398;28;20049;-81
2022/11/29 12:18:24;;;;;;;4.47;2.97;;;;;;;;;;5034802;28;20137;-82
2022/11/29 12:20:53;;;;;;;3.95;3.15;;;;;;;;;;5040280;28;20038;-82
2022/11/29 12:23:28;;;;;;;4.38;3.30;;;;;;;;;;5040766;28;20037;-82
2022/11/29 12:26:13;;;;;;;4.78;3.55;;;;;;;;;;5040595;28;20400;-82
2022/11/29 12:28:40;;;;;;;5.25;4.05;;;;;;;;;;5024354;28;20120;-82
2022/11/29 12:31:16;;;;;;;6.10;4.55;;;;;;;;;;5041448;28;20049;-82
2022/11/29 12:33:55;;;;;;;6.57;4.75;;;;;;;;;;5034354;28;20111;-81
2022/11/29 12:36:34;;;;;;;7.07;4.82;;;;;;;;;;5036131;28;20047;-81
2022/11/29 12:39:15;;;;;;;7.13;5.20;;;;;;;;;;5021781;28;20074;-81
2022/11/29 12:41:45;;;;;;;5.40;4.88;;;;;;;;;;5020595;28;20373;-82
2022/11/29 12:44:27;;;;;;;5.95;4.57;;;;;;;;;;5026509;28;20037;-82
2022/11/29 12:47:00;;;;;;;5.85;4.70;;;;;;;;;;5040815;28;20041;-82
2022/11/29 12:49:30;;;;;;;5.53;4.82;;;;;;;;;;5037878;28;20045;-81
2022/11/29 12:52:05;;;;;;;7.63;4.93;;;;;;;;;;5019699;28;20085;-81
2022/11/29 12:54:43;;;;;;;8.27;4.57;;;;;;;;;;5023836;28;20209;-81
2022/11/29 12:57:18;;;;;;;5.13;4.25;;;;;;;;;;5020600;28;20038;-81
2022/11/29 12:59:54;;;;;;;5.57;4.07;;;;;;;;;;5034291;28;20388;-81
2022/11/29 13:02:24;;;;;;;5.88;3.97;;;;;;;;;;5008423;28;20049;-82
2022/11/29 13:05:00;;;;;;;4.75;3.47;;;;;;;;;;5034591;28;20034;-82
2022/11/29 13:07:38;;;;;;;4.70;3.78;;;;;;;;;;5021031;28;20073;-82
2022/11/29 13:10:23;;;;;;;5.70;4.38;;;;;;;;;;5020862;28;20101;-82
2022/11/29 13:12:54;;;;;;;6.38;3.85;;;;;;;;;;5020647;28;20050;-82
2022/11/29 13:15:26;;;;;;;4.53;4.03;;;;;;;;;;5020615;28;20092;-82
2022/11/29 13:17:55;;;;;;;5.82;4.40;;;;;;;;;;5028730;28;20105;-82
2022/11/29 13:20:30;;;;;;;6.15;4.07;;;;;;;;;;5020716;28;20419;-82
2022/11/29 13:23:04;;;;;;;4.68;3.90;;;;;;;;;;5029221;28;20053;-81
2022/11/29 13:25:36;;;;;;;4.18;3.78;;;;;;;;;;5020644;28;20089;-81
2022/11/29 13:28:05;;;;;;;5.88;4.20;;;;;;;;;;5021564;28;20512;-81
2022/11/29 13:30:33;;;;;;;5.18;4.05;;;;;;;;;;5035907;28;20110;-82
2022/11/29 13:33:03;;;;;;;5.88;4.20;;;;;;;;;;5040284;28;20070;-82
2022/11/29 13:35:36;;;;;;;5.05;4.55;;;;;;;;;;5039080;28;20050;-82
2022/11/29 13:38:20;;;;;;;4.63;4.18;;;;;;;;;;5020482;28;20121;-81
2022/11/29 13:40:55;;;;;;;4.90;4.40;;;;;;;;;;5024837;28;20046;-83
2022/11/29 13:43:40;;;;;;;5.03;4.40;;;;;;;;;;5038659;28;20055;-83
2022/11/29 13:46:25;;;;;;;5.97;4.90;;;;;;;;;;5039150;28;20108;-82
2022/11/29 13:48:53;;;;;;;5.13;4.65;;;;;;;;;;5034931;28;20134;-83
2022/11/29 13:51:33;;;;;;;5.53;4.80;;;;;;;;;;5018812;28;20053;-82
2022/11/29 13:54:02;;;;;;;5.25;4.75;;;;;;;;;;5020666;28;20058;-82
2022/11/29 13:56:42;;;;;;;5.90;5.13;;;;;;;;;;5023637;28;20049;-82
2022/11/29 13:59:12;;;;;;;5.40;4.90;;;;;;;;;;5018359;28;20048;-81
2022/11/29 14:01:52;;;;;;;5.30;4.72;;;;;;;;;;5036903;28;20045;-82
2022/11/29 14:04:40;;;;;;;9.40;5.80;;;;;;;;;;5017587;28;20105;-83
2022/11/29 14:07:14;;;;;;;5.75;5.15;;;;;;;;;;5037563;28;20041;-82
2022/11/29 14:09:45;;;;;;;6.05;5.40;;;;;;;;;;5020396;28;20069;-81
2022/11/29 14:12:34;;;;;;;6.13;5.50;;;;;;;;;;5018219;28;20504;-82
2022/11/29 14:15:33;;;;;;;6.85;6.18;;;;;;;;;;5018472;28;20084;-82
2022/11/29 14:18:01;;;;;;;6.88;6.15;;;;;;;;;;5019087;28;20116;-82
2022/11/29 14:20:27;;;;;;;6.97;6.28;;;;;;;;;;5038700;28;20045;-82
2022/11/29 14:23:08;;;;;;;9.40;6.78;;;;;;;;;;5032760;28;20037;-82
2022/11/29 14:25:36;;;;;;;7.85;6.63;;;;;;;;;;5035876;28;20049;-83
2022/11/29 14:28:14;;;;;;;7.25;6.40;;;;;;;;;;5036420;28;20195;-82
2022/11/29 14:30:43;;;;;;;9.20;6.50;;;;;;;;;;5027046;28;20044;-81
2022/11/29 14:33:18;;;;;;;8.25;6.65;;;;;;;;;;5036076;28;20072;-82
2022/11/29 14:36:12;;;;;;;9.60;7.25;;;;;;;;;;5038590;28;20462;-79
2022/11/29 14:38:47;;;;;;;9.23;7.45;;;;;;;;;;5038710;28;20060;-82
2022/11/29 14:41:42;;;;;;;10.52;7.97;;;;;;;;;;5003516;28;20053;-82
2022/11/29 14:44:17;;;;;;;11.77;8.02;;;;;;;;;;5037510;28;20398;-83
2022/11/29 14:46:44;;;;;;;12.25;8.13;;;;;;;;;;5037730;28;20111;-83
2022/11/29 14:49:19;;;;;;;9.35;7.75;;;;;;;;;;5040428;28;20042;-83
2022/11/29 14:52:06;;;;;;;8.55;7.22;;;;;;;;;;5038566;28;20045;-83
2022/11/29 14:54:32;;;;;;;10.93;8.57;;;;;;;;;;5038329;28;20045;-83
2022/11/29 14:57:18;;;;;;;9.70;7.93;;;;;;;;;;5038081;28;20049;-82
2022/11/29 14:59:48;;;;;;;11.20;8.68;;;;;;;;;;5037726;28;20051;-82
2022/11/29 15:02:31;;;;;;;11.52;8.93;;;;;;;;;;5044528;28;20033;-82